Terminal Aerodrome Forecast
Issued by NWS

Home | Current Version | Previous Version | Text Only | Print | Product List | Glossary On
Versions: 1 2 3 4 5 6 7 8 9 10 11 12 13 14 15 16 17 18 19 20 21 22 23 24
000
FTUS44 KOUN 051120
TAFWWR
TAF
KWWR 051120Z 0512/0612 15015G21KT P6SM FEW030 OVC070
      TEMPO 0512/0514 4SM RA BR SCT030 OVC045
     FM051400 16012G25KT 5SM -RA BR FEW030 OVC040
     FM051800 14012G22KT 5SM -TSRA OVC007CB
     FM060200 15017G25KT P6SM OVC030
      TEMPO 0602/0606 6SM -TSRA OVC015CB
     FM060600 16013G22KT P6SM BKN050=

USA.gov is the U.S. government's official web portal to all federal, state and local government web resources and services.